Barkley Regional Airport Paducah US
ICAO: KPAH
IATA: PAH
Category: Medium
Scheduled Services: Yes

Elevation: 410 ft
TransAlt. 18000 ft.

Airport Communications:
ASOS:118.375
MEMPHIS CNTR:133.65
CTAF:119.6
GND:121.7
LOUISVILLE RDO:122.2
PADUCAH TWR:119.6
UNICOM:123

KPAH Zoom In..

If you have problems with the map follow the link
https://www.worldairports.se/pages/airport.php?
ICAO=KPAH

Runways:

(A) RW 04 length 6500 ft width 150 ft
ILS 108.50 / hdg 45

(B) RW 14 length 5499 ft width 150 ft
---- / hdg 140

(C) RW 22 length 6500 ft width 150 ft
---- / hdg 225

(D) RW 32 length 5499 ft width 150 ft
---- / hdg 320

Location; KPAH
Day. 13 / Time. 21.21 Zulu
* Altimeter: 29.86
* Temperature: 08° c. 46.4°f.
* Wind from: 000° Speed 00 kn.
Dewpoint: 06° c.
Visibility: 2 m.
Clouds: Overcast 600 ft.
Conditions: Mist.

KPAH 132121Z 00000KT 2 1/2SM BR OVC006 08/06 A2986 RMK AO2 T00780061


Wind - Calm.

 
 
jpsmedia worldairports.se 2019   terms of use